Time;durP1;ratioP1;P1;durP2;ratioP2;P2;SDS_P1;SDS_P2;PMS_P1;PMS_P2;Temp;Humidity;BMP_temperature;BMP_pressure;BME280_temperature;BME280_humidity;BME280_pressure;Samples;Min_cycle;Max_cycle;Signal;HPM_P1;HPM_P2
2022/11/24 00:02:01;;;;;;;13.70;9.52;;;-1.40;99.90;;;;;;4993797;28;20101;-80
2022/11/24 00:04:27;;;;;;;15.40;10.60;;;-1.40;99.90;;;;;;4983800;28;20042;-78
2022/11/24 00:06:52;;;;;;;17.05;10.52;;;-1.30;99.90;;;;;;4994673;28;20010;-79
2022/11/24 00:09:19;;;;;;;14.18;9.70;;;-1.30;99.90;;;;;;4994848;28;20093;-80
2022/11/24 00:11:45;;;;;;;17.38;10.30;;;-1.20;99.90;;;;;;4995641;28;20065;-80
2022/11/24 00:14:11;;;;;;;15.45;9.50;;;-1.20;99.90;;;;;;4994459;28;20388;-82
2022/11/24 00:16:38;;;;;;;14.00;9.13;;;-1.20;99.90;;;;;;4994431;28;20575;-79
2022/11/24 00:19:10;;;;;;;12.52;9.02;;;-1.20;99.90;;;;;;4989188;28;20129;-80
2022/11/24 00:21:37;;;;;;;14.68;9.38;;;-1.30;99.90;;;;;;4989840;28;20022;-80
2022/11/24 00:24:03;;;;;;;15.90;10.35;;;-1.30;99.90;;;;;;4993649;28;20046;-80
2022/11/24 00:26:32;;;;;;;15.95;9.32;;;-1.40;99.90;;;;;;4992165;28;20144;-80
2022/11/24 00:29:00;;;;;;;14.13;7.95;;;-1.40;99.90;;;;;;4989057;28;20030;-79
2022/11/24 00:31:32;;;;;;;12.50;7.50;;;-1.40;99.90;;;;;;4987348;28;20022;-80
2022/11/24 00:34:04;;;;;;;13.10;8.68;;;-1.40;99.90;;;;;;4979482;28;20054;-79
2022/11/24 00:36:32;;;;;;;12.45;7.93;;;-1.50;99.90;;;;;;4993895;28;20022;-79
2022/11/24 00:39:00;;;;;;;14.23;9.13;;;-1.50;99.90;;;;;;4991565;28;20053;-82
2022/11/24 00:41:28;;;;;;;11.00;7.15;;;-1.50;99.90;;;;;;4994452;28;20076;-83
2022/11/24 00:43:54;;;;;;;9.55;5.82;;;-1.50;99.90;;;;;;4994366;28;20388;-83
2022/11/24 00:46:21;;;;;;;9.32;7.68;;;-1.50;99.80;;;;;;5006163;28;20026;-82
2022/11/24 00:48:47;;;;;;;13.02;8.82;;;-1.60;99.50;;;;;;4980562;28;20082;-82
2022/11/24 00:51:14;;;;;;;16.40;8.35;;;-1.60;99.60;;;;;;4994008;28;20105;-83
2022/11/24 00:53:41;;;;;;;12.75;7.82;;;-1.60;99.50;;;;;;4992011;28;20168;-81
2022/11/24 00:56:07;;;;;;;11.55;7.28;;;-1.70;99.50;;;;;;4993052;28;20019;-81
2022/11/24 00:58:34;;;;;;;14.38;7.80;;;-1.70;99.40;;;;;;4991903;28;20022;-80
2022/11/24 01:01:17;;;;;;;14.88;9.25;;;-1.80;99.20;;;;;;4993541;28;20014;-83
2022/11/24 01:03:43;;;;;;;11.20;8.25;;;-1.90;99.30;;;;;;4993022;28;20038;-80
2022/11/24 01:06:12;;;;;;;14.65;8.73;;;-1.90;99.30;;;;;;4999559;28;20045;-79
2022/11/24 01:08:38;;;;;;;12.25;9.38;;;-1.80;99.50;;;;;;4989128;28;20377;-78
2022/11/24 01:11:20;;;;;;;13.60;7.75;;;-1.80;99.00;;;;;;4991013;28;20410;-78
2022/11/24 01:13:50;;;;;;;12.52;9.07;;;-1.90;98.90;;;;;;4997995;28;20030;-77
2022/11/24 01:16:28;;;;;;;12.02;7.95;;;-1.90;99.10;;;;;;4997580;28;20018;-77
2022/11/24 01:18:57;;;;;;;13.10;7.78;;;-1.90;99.30;;;;;;4993685;28;20054;-80
2022/11/24 01:21:23;;;;;;;14.85;10.40;;;-1.80;99.20;;;;;;4980736;28;20026;-81
2022/11/24 01:23:49;;;;;;;16.23;9.65;;;-1.90;99.00;;;;;;4993567;28;20435;-83
2022/11/24 01:26:18;;;;;;;14.27;9.73;;;-1.90;99.00;;;;;;4992511;28;20495;-82
2022/11/24 01:28:44;;;;;;;11.48;6.90;;;-1.90;99.10;;;;;;4992855;28;20077;-79
2022/11/24 01:31:10;;;;;;;14.70;7.07;;;-1.80;99.50;;;;;;4993034;28;20023;-80
2022/11/24 01:33:36;;;;;;;13.55;9.55;;;-1.90;98.80;;;;;;5001001;28;20137;-82
2022/11/24 01:36:03;;;;;;;13.55;8.05;;;-2.00;98.40;;;;;;4994586;28;20130;-81
2022/11/24 01:38:30;;;;;;;12.23;8.18;;;-2.10;98.50;;;;;;4993207;28;20034;-80
2022/11/24 01:41:01;;;;;;;12.70;7.70;;;-2.00;98.60;;;;;;4993470;28;20053;-81
2022/11/24 01:43:27;;;;;;;11.48;6.80;;;-2.00;98.50;;;;;;4998755;28;20041;-81
2022/11/24 01:45:53;;;;;;;12.48;7.90;;;-2.00;98.60;;;;;;4997271;28;20018;-81
2022/11/24 01:48:33;;;;;;;12.02;7.75;;;-1.90;98.30;;;;;;4993851;28;20033;-81
2022/11/24 01:51:25;;;;;;;10.15;7.50;;;-2.00;98.30;;;;;;4986639;28;20105;-83
2022/11/24 01:54:05;;;;;;;15.15;8.95;;;-1.90;98.60;;;;;;4988389;28;20029;-79
2022/11/24 01:56:33;;;;;;;14.50;9.02;;;-1.90;98.60;;;;;;4992667;28;20041;-78
2022/11/24 01:59:03;;;;;;;17.85;9.57;;;-1.80;98.60;;;;;;4993118;28;20026;-79
2022/11/24 02:01:30;;;;;;;15.88;8.75;;;-1.80;98.60;;;;;;4991493;28;20022;-79
2022/11/24 02:03:57;;;;;;;10.43;7.93;;;-1.70;98.70;;;;;;4997463;28;20412;-80
2022/11/24 02:06:27;;;;;;;12.88;8.63;;;-1.70;98.50;;;;;;5011443;28;20400;-78
2022/11/24 02:09:15;;;;;;;13.98;7.93;;;-1.70;98.30;;;;;;4991052;28;20030;-79
2022/11/24 02:11:43;;;;;;;14.30;8.95;;;-1.80;98.30;;;;;;4992478;28;20062;-79
2022/11/24 02:14:12;;;;;;;14.57;8.38;;;-1.90;98.60;;;;;;4992419;28;20011;-80
2022/11/24 02:16:39;;;;;;;12.35;7.97;;;-2.00;98.60;;;;;;4992658;28;20065;-80
2022/11/24 02:19:38;;;;;;;15.65;11.55;;;-1.90;98.90;;;;;;4987610;28;20015;-82
2022/11/24 02:22:07;;;;;;;18.98;9.95;;;-1.90;99.10;;;;;;4994870;28;20015;-80
2022/11/24 02:24:51;;;;;;;15.40;10.50;;;-1.90;98.90;;;;;;4992565;28;20419;-81
2022/11/24 02:27:18;;;;;;;17.85;10.00;;;-1.90;99.00;;;;;;4978670;28;20109;-83
2022/11/24 02:29:44;;;;;;;16.88;9.43;;;-2.00;99.20;;;;;;4991368;28;20035;-82
2022/11/24 02:32:11;;;;;;;15.93;10.43;;;-1.90;99.40;;;;;;4992210;28;20014;-80
2022/11/24 02:34:37;;;;;;;16.00;9.90;;;-1.90;99.40;;;;;;4992626;28;20502;-81
2022/11/24 02:37:02;;;;;;;18.92;10.52;;;-1.90;99.60;;;;;;4992590;28;20029;-79
2022/11/24 02:39:28;;;;;;;14.98;9.98;;;-2.00;99.80;;;;;;4990617;28;20484;-82
2022/11/24 02:42:00;;;;;;;16.33;10.85;;;-2.00;99.90;;;;;;4992447;28;20046;-80
2022/11/24 02:44:31;;;;;;;10.60;7.25;;;-2.00;99.90;;;;;;4992509;28;20022;-80
2022/11/24 02:47:09;;;;;;;15.55;9.20;;;-2.00;99.90;;;;;;4992565;28;20046;-81
2022/11/24 02:49:35;;;;;;;21.70;11.10;;;-2.10;99.90;;;;;;4992985;28;20065;-81
2022/11/24 02:52:02;;;;;;;14.38;9.73;;;-2.20;99.90;;;;;;4993240;28;20134;-78
2022/11/24 02:54:28;;;;;;;18.02;9.80;;;-2.20;99.90;;;;;;4995369;28;20105;-78
2022/11/24 02:56:53;;;;;;;17.40;10.07;;;-2.10;99.90;;;;;;4992402;28;20105;-78
2022/11/24 02:59:19;;;;;;;16.30;9.68;;;-2.10;99.90;;;;;;4995652;28;20110;-79
2022/11/24 03:01:45;;;;;;;14.05;9.15;;;-2.10;99.90;;;;;;4995643;28;20019;-77
2022/11/24 03:04:11;;;;;;;16.75;10.30;;;-2.10;99.90;;;;;;5000446;28;20027;-78
2022/11/24 03:06:37;;;;;;;18.65;10.05;;;-2.20;99.90;;;;;;5006711;28;20026;-77
2022/11/24 03:09:04;;;;;;;19.73;10.18;;;-2.20;99.90;;;;;;4995840;28;20034;-78
2022/11/24 03:11:30;;;;;;;17.05;10.55;;;-2.10;99.90;;;;;;4995878;28;20357;-77
2022/11/24 03:13:56;;;;;;;16.73;8.80;;;-2.10;99.90;;;;;;4995757;28;20077;-78
2022/11/24 03:16:21;;;;;;;17.40;10.27;;;-2.10;99.90;;;;;;4995694;28;20097;-79
2022/11/24 03:18:50;;;;;;;18.75;11.27;;;-2.20;99.90;;;;;;4995556;28;20479;-80
2022/11/24 03:21:16;;;;;;;14.43;9.32;;;-2.20;99.90;;;;;;4994234;28;20018;-80
2022/11/24 03:23:41;;;;;;;17.05;9.68;;;-2.20;99.90;;;;;;4995221;28;20038;-81
2022/11/24 03:26:17;;;;;;;15.13;9.98;;;-2.20;99.90;;;;;;4995440;28;20095;-79
2022/11/24 03:28:43;;;;;;;15.00;9.25;;;-2.20;99.90;;;;;;4993930;28;20034;-80
2022/11/24 03:31:09;;;;;;;17.23;11.05;;;-2.20;99.90;;;;;;4995013;28;20033;-80
2022/11/24 03:33:35;;;;;;;14.90;10.32;;;-2.20;99.90;;;;;;4995234;28;20030;-80
2022/11/24 03:36:02;;;;;;;16.63;10.18;;;-2.30;99.90;;;;;;4995302;28;20667;-81
2022/11/24 03:38:28;;;;;;;19.23;11.45;;;-2.30;99.90;;;;;;4995029;28;20527;-79
2022/11/24 03:40:54;;;;;;;18.15;9.90;;;-2.30;99.90;;;;;;4994265;28;20110;-75
2022/11/24 03:43:20;;;;;;;18.10;10.38;;;-2.30;99.90;;;;;;4992510;28;20037;-80
2022/11/24 03:45:49;;;;;;;17.95;10.95;;;-2.40;99.90;;;;;;4994271;28;20080;-80
2022/11/24 03:48:17;;;;;;;16.70;9.60;;;-2.40;99.90;;;;;;4995477;28;20027;-82
2022/11/24 03:50:51;;;;;;;16.73;10.07;;;-2.40;99.90;;;;;;4996948;28;20427;-80
2022/11/24 03:53:16;;;;;;;17.90;10.00;;;-2.40;99.90;;;;;;5001322;28;20022;-80
2022/11/24 03:55:43;;;;;;;17.80;11.00;;;-2.50;99.90;;;;;;4994474;28;20514;-79
2022/11/24 03:58:08;;;;;;;15.55;10.95;;;-2.50;99.90;;;;;;4995060;28;20359;-82
2022/11/24 04:00:34;;;;;;;16.80;10.70;;;-2.50;99.90;;;;;;4995302;28;20026;-79
2022/11/24 04:03:00;;;;;;;16.63;10.77;;;-2.40;99.90;;;;;;4994663;28;20023;-76
2022/11/24 04:05:26;;;;;;;18.27;10.20;;;-2.40;99.90;;;;;;5004511;28;20513;-79
2022/11/24 04:07:56;;;;;;;23.77;11.98;;;-2.40;99.90;;;;;;4997496;28;20026;-82
2022/11/24 04:10:22;;;;;;;26.10;13.88;;;-2.30;99.90;;;;;;4993786;28;20530;-78
2022/11/24 04:12:48;;;;;;;22.90;14.57;;;-2.40;99.90;;;;;;4994305;28;20141;-80
2022/11/24 04:15:17;;;;;;;20.52;11.88;;;-2.40;99.90;;;;;;4994561;28;20687;-80
2022/11/24 04:17:45;;;;;;;20.30;11.70;;;-2.40;99.90;;;;;;4993614;28;20076;-80
2022/11/24 04:20:12;;;;;;;22.17;11.98;;;-2.40;99.90;;;;;;4993784;28;20379;-79
2022/11/24 04:22:38;;;;;;;18.00;11.13;;;-2.40;99.90;;;;;;4994067;28;20388;-80
2022/11/24 04:25:05;;;;;;;24.67;11.80;;;-2.50;99.90;;;;;;4994104;28;20129;-79
2022/11/24 04:27:35;;;;;;;18.10;9.38;;;-2.50;99.90;;;;;;4994567;28;20026;-82
2022/11/24 04:30:01;;;;;;;15.38;9.50;;;-2.50;99.90;;;;;;4997320;28;20046;-82
2022/11/24 04:32:27;;;;;;;16.90;10.10;;;-2.50;99.90;;;;;;5001353;28;20018;-82
2022/11/24 04:35:01;;;;;;;17.85;12.68;;;-2.40;99.90;;;;;;4995936;28;20279;-83
2022/11/24 04:37:27;;;;;;;16.20;10.70;;;-2.40;99.90;;;;;;4995627;28;20188;-79
2022/11/24 04:39:54;;;;;;;16.55;10.55;;;-2.40;99.90;;;;;;4994295;28;20543;-80
2022/11/24 04:42:22;;;;;;;13.35;8.48;;;-2.40;99.90;;;;;;4993535;28;20165;-79
2022/11/24 04:45:00;;;;;;;14.07;9.05;;;-2.40;99.90;;;;;;4992440;28;20049;-79
2022/11/24 04:47:26;;;;;;;15.75;10.15;;;-2.50;99.50;;;;;;4990120;28;20030;-77
2022/11/24 04:49:52;;;;;;;16.17;10.18;;;-2.60;99.50;;;;;;4992894;28;20034;-78
2022/11/24 04:52:21;;;;;;;23.47;11.90;;;-2.60;99.60;;;;;;4993377;28;20200;-80
2022/11/24 04:54:47;;;;;;;18.02;12.13;;;-2.60;99.60;;;;;;4994631;28;20112;-79
2022/11/24 04:57:19;;;;;;;15.43;10.68;;;-2.70;99.30;;;;;;4994955;28;20026;-79
2022/11/24 04:59:45;;;;;;;17.88;11.00;;;-2.70;99.30;;;;;;4995204;28;20034;-80
2022/11/24 05:02:12;;;;;;;17.25;10.25;;;-2.70;99.40;;;;;;4993345;28;20037;-80
2022/11/24 05:04:38;;;;;;;14.57;10.40;;;-2.70;99.20;;;;;;4989072;28;20065;-80
2022/11/24 05:07:04;;;;;;;22.20;13.40;;;-2.70;99.30;;;;;;4986023;28;20368;-80
2022/11/24 05:09:30;;;;;;;17.40;10.27;;;-2.70;99.50;;;;;;4993125;28;20033;-80
2022/11/24 05:11:56;;;;;;;19.13;9.77;;;-2.70;99.60;;;;;;4993553;28;20069;-81
2022/11/24 05:14:22;;;;;;;20.40;13.80;;;-2.70;99.70;;;;;;4993180;28;20026;-80
2022/11/24 05:16:48;;;;;;;17.25;10.93;;;-2.70;99.70;;;;;;4993465;28;20018;-81
2022/11/24 05:19:14;;;;;;;19.50;10.73;;;-2.70;99.70;;;;;;4993213;28;20026;-79
2022/11/24 05:21:40;;;;;;;20.13;11.40;;;-2.70;99.90;;;;;;4993364;28;20027;-80
2022/11/24 05:24:06;;;;;;;17.10;10.82;;;-2.70;99.90;;;;;;4989867;28;20791;-80
2022/11/24 05:26:32;;;;;;;14.68;9.25;;;-2.80;99.80;;;;;;4976407;28;20026;-79
2022/11/24 05:28:57;;;;;;;17.40;10.73;;;-2.80;99.80;;;;;;4988451;28;20038;-80
2022/11/24 05:31:23;;;;;;;23.08;12.77;;;-2.80;99.80;;;;;;4973641;28;20509;-81
2022/11/24 05:33:49;;;;;;;20.98;12.05;;;-2.80;99.90;;;;;;4973773;28;20106;-81
2022/11/24 05:39:03;;;;;;;21.23;10.00;;;-2.70;99.90;;;;;;4974110;28;20121;-82
2022/11/24 05:41:28;;;;;;;13.85;9.23;;;-2.70;99.70;;;;;;4984894;28;20170;-81
2022/11/24 05:43:54;;;;;;;15.80;10.80;;;-2.70;99.90;;;;;;4971198;28;20098;-81
2022/11/24 05:46:20;;;;;;;17.83;10.93;;;-2.70;99.70;;;;;;4973665;28;20022;-81
2022/11/24 05:48:46;;;;;;;17.60;11.63;;;-2.60;99.50;;;;;;4988278;28;20039;-81
2022/11/24 05:51:12;;;;;;;15.20;11.55;;;-2.60;99.60;;;;;;4973525;28;20377;-82
2022/11/24 05:53:38;;;;;;;17.27;10.55;;;-2.60;99.70;;;;;;4973366;28;20022;-79
2022/11/24 05:56:04;;;;;;;21.65;13.45;;;-2.50;99.60;;;;;;4972966;28;20034;-81
2022/11/24 05:58:30;;;;;;;13.38;9.40;;;-2.50;99.60;;;;;;4969236;28;20023;-80
2022/11/24 06:00:56;;;;;;;18.17;10.80;;;-2.40;99.60;;;;;;4970986;28;20553;-82
2022/11/24 06:03:22;;;;;;;17.30;11.50;;;-2.40;99.20;;;;;;4973682;28;20037;-80
2022/11/24 06:05:48;;;;;;;18.27;9.95;;;-2.50;99.10;;;;;;4974272;28;20019;-80
2022/11/24 06:08:14;;;;;;;12.45;8.82;;;-2.50;99.10;;;;;;4973197;28;20081;-80
2022/11/24 06:10:40;;;;;;;16.63;9.02;;;-2.50;99.00;;;;;;4976609;28;20085;-80
2022/11/24 06:13:09;;;;;;;23.92;11.82;;;-2.60;99.00;;;;;;4989293;28;20473;-80
2022/11/24 06:15:36;;;;;;;18.23;12.18;;;-2.60;99.00;;;;;;4973197;28;20039;-82
2022/11/24 06:18:02;;;;;;;16.27;10.35;;;-2.60;99.00;;;;;;4973500;28;20019;-80
2022/11/24 06:20:28;;;;;;;15.73;10.02;;;-2.50;99.00;;;;;;4988272;28;20392;-81
2022/11/24 06:22:57;;;;;;;18.67;11.60;;;-2.50;98.90;;;;;;4974028;28;20019;-81
2022/11/24 06:25:23;;;;;;;18.40;11.23;;;-2.60;98.80;;;;;;4993112;28;20066;-80
2022/11/24 06:27:49;;;;;;;15.20;10.07;;;-2.60;98.80;;;;;;4996421;28;20023;-80
2022/11/24 06:30:15;;;;;;;16.45;9.80;;;-2.50;98.90;;;;;;4989051;28;20061;-81
2022/11/24 06:32:43;;;;;;;18.27;11.52;;;-2.40;98.90;;;;;;4993701;28;20042;-81
2022/11/24 06:35:13;;;;;;;17.70;10.63;;;-2.40;98.60;;;;;;4996078;28;20019;-80
2022/11/24 06:37:39;;;;;;;16.10;10.32;;;-2.40;98.70;;;;;;4996285;28;20392;-82
2022/11/24 06:40:08;;;;;;;14.82;9.00;;;-2.40;98.50;;;;;;4996521;28;20026;-82
2022/11/24 06:42:34;;;;;;;18.20;11.10;;;-2.40;98.20;;;;;;4996215;28;20025;-80
2022/11/24 06:45:00;;;;;;;16.75;10.48;;;-2.40;98.10;;;;;;4996517;28;20030;-81
2022/11/24 06:47:26;;;;;;;14.18;9.30;;;-2.30;98.10;;;;;;4982898;28;20035;-80
2022/11/24 06:49:52;;;;;;;16.52;10.48;;;-2.30;98.10;;;;;;4997553;28;20038;-80
2022/11/24 06:52:18;;;;;;;13.40;10.43;;;-2.20;98.10;;;;;;5000354;28;20027;-80
2022/11/24 06:54:44;;;;;;;16.08;9.82;;;-2.10;98.00;;;;;;4995170;28;20448;-80
2022/11/24 06:57:09;;;;;;;15.55;9.38;;;-2.10;98.00;;;;;;4997432;28;20101;-81
2022/11/24 06:59:35;;;;;;;19.65;10.80;;;-2.10;98.00;;;;;;4999090;28;20030;-81
2022/11/24 07:02:01;;;;;;;21.65;10.38;;;-2.00;97.80;;;;;;4996162;28;20380;-81
2022/11/24 07:04:27;;;;;;;17.23;11.13;;;-2.00;97.80;;;;;;4995979;28;20045;-81
2022/11/24 07:06:53;;;;;;;18.20;10.40;;;-1.90;97.60;;;;;;4994415;28;20504;-80
2022/11/24 07:09:18;;;;;;;18.92;10.93;;;-1.90;97.40;;;;;;4985960;28;20041;-81
2022/11/24 07:11:44;;;;;;;20.13;11.82;;;-2.00;97.30;;;;;;4995742;28;20030;-81
2022/11/24 07:14:10;;;;;;;17.70;10.95;;;-2.00;97.30;;;;;;4996559;28;20193;-81
2022/11/24 07:16:37;;;;;;;23.60;11.65;;;-2.00;97.40;;;;;;4996993;28;20030;-81
2022/11/24 07:19:03;;;;;;;18.95;11.18;;;-2.00;97.40;;;;;;4998106;28;20023;-80
2022/11/24 07:21:29;;;;;;;21.25;11.50;;;-1.90;97.40;;;;;;4995220;28;20026;-82
2022/11/24 07:23:56;;;;;;;19.15;11.70;;;-1.90;97.40;;;;;;4996332;28;20069;-80
2022/11/24 07:26:23;;;;;;;24.25;13.73;;;-2.00;97.30;;;;;;4988569;28;20035;-80
2022/11/24 07:28:49;;;;;;;18.67;11.40;;;-2.00;97.20;;;;;;4995080;28;20113;-79
2022/11/24 07:31:18;;;;;;;20.17;12.63;;;-2.00;97.10;;;;;;4995628;28;20556;-81
2022/11/24 07:33:51;;;;;;;21.80;13.20;;;-2.10;97.20;;;;;;4995449;28;20026;-81
2022/11/24 07:36:17;;;;;;;21.83;13.45;;;-2.10;97.20;;;;;;4995515;28;20062;-80
2022/11/24 07:38:47;;;;;;;32.45;13.98;;;-2.10;97.40;;;;;;4994021;28;20056;-81
2022/11/24 07:41:15;;;;;;;25.23;14.55;;;-2.10;97.60;;;;;;4993564;28;20400;-82
2022/11/24 07:43:40;;;;;;;;;;;-2.10;97.80;;;;;;4994839;28;20030;-81
2022/11/24 07:46:09;;;;;;;21.85;13.07;;;-2.10;97.80;;;;;;4994765;28;19917;-80
2022/11/24 07:48:35;;;;;;;22.20;13.60;;;-2.10;97.50;;;;;;4994849;28;20045;-81
2022/11/24 07:51:05;;;;;;;28.13;14.80;;;-2.20;97.60;;;;;;4995129;28;20019;-82
2022/11/24 07:53:32;;;;;;;22.40;16.17;;;-2.30;97.70;;;;;;4995047;28;20081;-81
2022/11/24 07:56:00;;;;;;;25.17;16.70;;;-2.30;97.90;;;;;;4994890;28;20329;-80
2022/11/24 07:58:27;;;;;;;22.95;13.30;;;-2.30;98.10;;;;;;4969458;28;20023;-83
2022/11/24 08:00:57;;;;;;;20.42;12.93;;;-2.30;98.10;;;;;;4995089;28;20101;-81
2022/11/24 08:03:24;;;;;;;21.75;14.07;;;-2.20;98.10;;;;;;4996477;28;20388;-81
2022/11/24 08:05:57;;;;;;;23.17;14.85;;;-2.10;97.90;;;;;;4994849;28;20030;-81
2022/11/24 08:08:23;;;;;;;19.35;12.38;;;-2.10;97.80;;;;;;4996289;28;20030;-80
2022/11/24 08:10:52;;;;;;;20.05;12.35;;;-2.00;97.90;;;;;;4996887;28;20527;-81
2022/11/24 08:13:18;;;;;;;26.38;13.40;;;-2.00;97.50;;;;;;4999287;28;20049;-81
2022/11/24 08:15:44;;;;;;;19.85;13.68;;;-2.10;97.40;;;;;;4997699;28;20053;-80
2022/11/24 08:18:11;;;;;;;23.30;15.48;;;-2.20;97.30;;;;;;4997931;28;20060;-80
2022/11/24 08:20:37;;;;;;;27.40;15.85;;;-2.20;97.60;;;;;;4994774;28;20388;-82
2022/11/24 08:23:03;;;;;;;23.75;14.93;;;-2.10;97.80;;;;;;4994553;28;20038;-82
2022/11/24 08:25:33;;;;;;;25.17;12.57;;;-1.90;97.90;;;;;;4963420;28;20117;-82
2022/11/24 08:28:04;;;;;;;23.98;14.35;;;-1.80;97.50;;;;;;4995767;28;20439;-82
2022/11/24 08:30:30;;;;;;;25.95;14.20;;;-1.80;97.20;;;;;;4991799;28;20400;-81
2022/11/24 08:33:00;;;;;;;23.83;14.25;;;-1.90;97.10;;;;;;4996628;28;20602;-81
2022/11/24 08:35:27;;;;;;;24.55;15.85;;;-2.00;97.20;;;;;;4994178;28;20420;-82
2022/11/24 08:37:53;;;;;;;19.60;13.35;;;-1.90;97.10;;;;;;4994829;28;20023;-82
2022/11/24 08:40:19;;;;;;;22.33;13.52;;;-1.90;97.20;;;;;;4992769;28;20037;-80
2022/11/24 08:42:45;;;;;;;21.02;12.27;;;-1.90;97.10;;;;;;4994318;28;20022;-80
2022/11/24 08:45:11;;;;;;;21.65;13.82;;;-1.90;97.20;;;;;;4995694;28;20029;-82
2022/11/24 08:47:39;;;;;;;25.50;14.80;;;-1.90;97.30;;;;;;4991507;28;20034;-80
2022/11/24 08:50:05;;;;;;;;;;;-1.80;97.40;;;;;;4994379;28;20038;-82
2022/11/24 08:52:31;;;;;;;19.23;9.45;;;-1.70;97.50;;;;;;4992887;28;19953;-83
2022/11/24 08:54:56;;;;;;;30.02;16.52;;;-1.80;96.80;;;;;;4992935;28;20034;-81
2022/11/24 08:57:23;;;;;;;21.33;13.68;;;-1.80;96.90;;;;;;4992764;28;20038;-81
2022/11/24 08:59:49;;;;;;;26.20;12.95;;;-1.80;97.00;;;;;;4992799;28;20038;-82
2022/11/24 09:02:15;;;;;;;19.42;14.10;;;-1.80;97.00;;;;;;4994759;28;20489;-83
2022/11/24 09:04:42;;;;;;;19.60;12.02;;;-1.80;97.00;;;;;;4995696;28;20057;-81
2022/11/24 09:07:08;;;;;;;18.58;12.32;;;-1.70;96.90;;;;;;4991710;28;20392;-80
2022/11/24 09:09:33;;;;;;;23.92;13.40;;;-1.80;96.60;;;;;;4993642;28;20090;-81
2022/11/24 09:11:59;;;;;;;17.80;11.35;;;-1.90;96.60;;;;;;4993611;28;20030;-82
2022/11/24 09:14:25;;;;;;;22.33;12.68;;;-1.90;96.80;;;;;;4993569;28;20495;-83
2022/11/24 09:16:51;;;;;;;21.15;13.85;;;-1.90;96.90;;;;;;4993049;28;20034;-82
2022/11/24 09:19:17;;;;;;;23.77;13.98;;;-1.80;96.70;;;;;;4991900;28;20026;-83
2022/11/24 09:21:42;;;;;;;24.17;14.75;;;-2.00;96.80;;;;;;4993298;28;20034;-81
2022/11/24 09:24:09;;;;;;;24.67;14.63;;;-2.10;96.90;;;;;;4990798;28;20049;-81
2022/11/24 09:26:37;;;;;;;23.42;14.32;;;-2.10;97.10;;;;;;4993512;28;20022;-82
2022/11/24 09:29:03;;;;;;;;;;;-2.00;97.30;;;;;;4993683;28;20041;-83
2022/11/24 09:31:34;;;;;;;19.52;10.60;;;-2.00;97.30;;;;;;4991207;28;19906;-82
2022/11/24 09:34:01;;;;;;;18.33;11.25;;;-2.00;97.30;;;;;;4979636;28;20081;-82
2022/11/24 09:36:28;;;;;;;25.33;14.40;;;-2.00;97.20;;;;;;4993527;28;20046;-81
2022/11/24 09:38:54;;;;;;;23.80;15.98;;;-1.90;97.20;;;;;;4992963;28;20084;-82
2022/11/24 09:41:48;;;;;;;21.50;13.20;;;-2.00;97.00;;;;;;4991675;28;20106;-82
2022/11/24 09:44:14;;;;;;;21.30;12.23;;;-2.00;97.20;;;;;;4979426;28;20042;-81
2022/11/24 09:46:49;;;;;;;25.77;13.32;;;-1.90;97.30;;;;;;4993143;28;20066;-82
2022/11/24 09:49:23;;;;;;;25.98;16.83;;;-1.80;97.30;;;;;;4990601;28;20036;-84
2022/11/24 09:51:53;;;;;;;21.73;14.63;;;-1.80;97.30;;;;;;4992214;28;20037;-81
2022/11/24 09:54:24;;;;;;;24.10;13.85;;;-1.80;97.10;;;;;;4991914;28;20030;-82
2022/11/24 09:56:51;;;;;;;26.02;16.65;;;-1.90;96.90;;;;;;4994652;28;20105;-82
2022/11/24 09:59:21;;;;;;;24.20;18.00;;;-2.10;97.00;;;;;;4998830;28;20034;-81
2022/11/24 10:01:49;;;;;;;27.70;16.52;;;-2.10;97.40;;;;;;5002586;28;20471;-84
2022/11/24 10:04:36;;;;;;;28.60;15.18;;;-2.20;97.50;;;;;;4994684;28;20023;-82
2022/11/24 10:07:05;;;;;;;27.30;15.13;;;-2.10;97.80;;;;;;4993093;28;20483;-81
2022/11/24 10:09:39;;;;;;;42.20;23.77;;;-2.10;97.50;;;;;;4992051;28;20043;-81
2022/11/24 10:12:26;;;;;;;27.58;15.43;;;-2.10;97.50;;;;;;4993377;28;20126;-82
2022/11/24 10:14:52;;;;;;;19.98;13.45;;;-2.10;97.80;;;;;;4979656;28;20077;-83
2022/11/24 10:17:32;;;;;;;26.85;16.92;;;-2.00;97.80;;;;;;4994647;28;20088;-83
2022/11/24 10:20:11;;;;;;;33.50;17.40;;;-2.00;97.40;;;;;;4986413;28;20037;-82
2022/11/24 10:22:43;;;;;;;28.27;17.88;;;-2.20;97.20;;;;;;4998824;28;20488;-80
2022/11/24 10:25:19;;;;;;;19.65;12.95;;;-2.30;97.50;;;;;;4992781;28;20039;-83
2022/11/24 10:27:59;;;;;;;22.00;13.23;;;-2.30;97.60;;;;;;4991767;28;20030;-82
2022/11/24 10:30:25;;;;;;;24.23;14.38;;;-2.20;97.60;;;;;;4992710;28;20030;-82
2022/11/24 10:33:01;;;;;;;18.47;12.80;;;-2.00;97.60;;;;;;4993244;28;20045;-81
2022/11/24 10:35:37;;;;;;;19.88;12.20;;;-1.90;97.50;;;;;;4994500;28;20113;-81
2022/11/24 10:38:18;;;;;;;24.35;12.82;;;-1.80;97.30;;;;;;5001095;28;20122;-81
2022/11/24 10:40:51;;;;;;;15.50;10.10;;;-1.70;97.20;;;;;;4993682;28;20026;-81
2022/11/24 10:43:17;;;;;;;20.65;14.18;;;-1.70;96.90;;;;;;4992590;28;20032;-83
2022/11/24 10:45:44;;;;;;;23.13;13.45;;;-1.80;96.60;;;;;;4991069;28;20100;-83
2022/11/24 10:48:24;;;;;;;21.67;11.63;;;-1.80;96.90;;;;;;4986815;28;20027;-82
2022/11/24 10:50:55;;;;;;;20.00;13.38;;;-1.80;96.80;;;;;;4990949;28;20080;-83
2022/11/24 10:53:36;;;;;;;21.08;14.23;;;-1.80;96.80;;;;;;4992271;28;20033;-84
2022/11/24 10:56:04;;;;;;;22.52;15.23;;;-1.80;96.80;;;;;;4991933;28;20014;-82
2022/11/24 10:58:36;;;;;;;23.90;15.50;;;-1.90;96.70;;;;;;4990812;28;20027;-82
2022/11/24 11:01:20;;;;;;;20.77;14.30;;;-1.80;96.90;;;;;;4992481;28;20033;-84
2022/11/24 11:03:57;;;;;;;25.23;15.25;;;-1.90;96.80;;;;;;4992036;28;20034;-82
2022/11/24 11:06:26;;;;;;;25.42;12.85;;;-1.90;96.90;;;;;;4979749;28;20027;-83
2022/11/24 11:09:07;;;;;;;22.92;14.38;;;-2.00;96.80;;;;;;4992710;28;20101;-81
2022/11/24 11:11:41;;;;;;;26.95;15.73;;;-2.10;97.00;;;;;;4981014;28;20110;-81
2022/11/24 11:14:11;;;;;;;24.15;13.73;;;-2.20;97.30;;;;;;4992707;28;20128;-82
2022/11/24 11:16:41;;;;;;;22.90;14.35;;;-2.20;97.40;;;;;;4992650;28;20494;-82
2022/11/24 11:19:33;;;;;;;25.73;15.60;;;-2.20;97.50;;;;;;4992810;28;20530;-81
2022/11/24 11:22:14;;;;;;;18.45;11.27;;;-2.20;97.40;;;;;;4985609;28;20117;-81
2022/11/24 11:24:43;;;;;;;22.48;12.50;;;-2.20;97.00;;;;;;4995457;28;20034;-81
2022/11/24 11:27:26;;;;;;;22.67;12.93;;;-2.30;96.90;;;;;;4995305;28;20022;-81
2022/11/24 11:29:52;;;;;;;24.50;13.15;;;-2.30;97.10;;;;;;4995571;28;20039;-81
2022/11/24 11:32:21;;;;;;;181.07;46.28;;;-2.40;97.20;;;;;;4981794;28;20033;-83
2022/11/24 11:34:49;;;;;;;17.95;13.23;;;-2.30;97.30;;;;;;4998067;28;20059;-83
2022/11/24 11:37:15;;;;;;;21.60;12.02;;;-2.30;96.90;;;;;;4995138;28;20360;-83
2022/11/24 11:39:45;;;;;;;26.10;12.75;;;-2.30;97.00;;;;;;4995691;28;20019;-81
2022/11/24 11:42:10;;;;;;;23.65;15.52;;;-2.20;97.20;;;;;;4994143;28;20114;-82
2022/11/24 11:45:16;;;;;;;21.67;12.18;;;-2.20;97.20;;;;;;4997034;28;20101;-83
2022/11/24 11:47:47;;;;;;;22.70;14.18;;;-2.20;97.10;;;;;;4988089;28;20032;-81
2022/11/24 11:50:15;;;;;;;24.10;12.38;;;-2.30;96.80;;;;;;4994920;28;20121;-82
2022/11/24 11:52:58;;;;;;;20.23;10.40;;;-2.30;97.20;;;;;;4994276;28;20519;-82
2022/11/24 11:55:39;;;;;;;21.15;13.75;;;-2.40;97.40;;;;;;4994864;28;20110;-82
2022/11/24 11:58:12;;;;;;;21.10;14.35;;;-2.40;97.50;;;;;;4995315;28;20076;-82
2022/11/24 12:00:47;;;;;;;22.40;12.68;;;-2.40;97.40;;;;;;4993673;28;20499;-81
2022/11/24 12:03:42;;;;;;;24.30;14.23;;;-2.50;97.50;;;;;;4995306;28;20033;-82
2022/11/24 12:06:24;;;;;;;25.83;16.92;;;-2.60;97.40;;;;;;4994976;28;20058;-82
2022/11/24 12:08:52;;;;;;;24.77;14.13;;;-2.60;97.50;;;;;;4990496;28;20113;-84
2022/11/24 12:11:37;;;;;;;47.85;19.48;;;-2.70;97.60;;;;;;4995551;28;20037;-84
2022/11/24 12:14:37;;;;;;;29.88;15.27;;;-2.60;97.90;;;;;;4994934;28;20025;-82
2022/11/24 12:17:25;;;;;;;26.98;16.52;;;-2.60;98.00;;;;;;4993992;28;20503;-82
2022/11/24 12:20:25;;;;;;;31.75;17.00;;;-2.60;97.80;;;;;;4994677;28;20018;-83
2022/11/24 12:23:01;;;;;;;28.52;16.48;;;-2.60;98.00;;;;;;4980192;28;20042;-82
2022/11/24 12:25:41;;;;;;;31.40;15.90;;;-2.60;98.00;;;;;;5000060;28;20054;-80
2022/11/24 12:28:31;;;;;;;29.20;15.85;;;-2.80;98.20;;;;;;4997905;28;20034;-81
2022/11/24 12:31:07;;;;;;;31.55;15.73;;;-2.80;98.40;;;;;;4983673;28;20108;-81
2022/11/24 12:34:08;;;;;;;27.95;17.33;;;-2.70;98.50;;;;;;4995032;28;20105;-81
2022/11/24 12:36:55;;;;;;;23.85;14.85;;;-2.70;98.40;;;;;;4994478;28;20018;-82
2022/11/24 12:39:34;;;;;;;26.42;14.32;;;-2.80;98.40;;;;;;4981836;28;20541;-82
2022/11/24 12:42:38;;;;;;;37.05;17.95;;;-2.90;98.60;;;;;;4994067;28;20110;-81
2022/11/24 12:45:25;;;;;;;30.33;16.25;;;-2.90;98.70;;;;;;4984907;28;20125;-82
2022/11/24 12:48:02;;;;;;;28.90;16.08;;;-2.90;98.70;;;;;;4983661;28;20029;-82